createdAt,value
2019-04-11T00:01:46.924Z,37.03
2019-04-11T00:04:11.137Z,37.35
2019-04-11T00:06:39.537Z,37.60
2019-04-11T00:09:10.221Z,38.17
2019-04-11T00:11:38.396Z,36.10
2019-04-11T00:14:07.431Z,36.83
2019-04-11T00:16:37.438Z,36.98
2019-04-11T00:19:05.909Z,36.00
2019-04-11T00:21:34.987Z,37.17
2019-04-11T00:24:03.527Z,36.83
2019-04-11T00:26:32.755Z,35.90
2019-04-11T00:29:01.782Z,36.60
2019-04-11T00:31:30.655Z,35.70
2019-04-11T00:33:59.477Z,36.00
2019-04-11T00:36:28.421Z,37.58
2019-04-11T00:38:57.339Z,37.08
2019-04-11T00:41:26.051Z,35.92
2019-04-11T00:43:54.704Z,36.17
2019-04-11T00:46:23.183Z,35.92
2019-04-11T00:48:54.385Z,36.30
2019-04-11T00:51:23.577Z,36.40
2019-04-11T00:53:52.074Z,35.65
2019-04-11T00:56:20.555Z,36.30
2019-04-11T00:58:49.925Z,37.38
2019-04-11T01:01:19.702Z,35.88
2019-04-11T01:03:49.475Z,37.40
2019-04-11T01:06:18.265Z,36.00
2019-04-11T01:08:46.823Z,37.13
2019-04-11T01:11:16.036Z,37.05
2019-04-11T01:13:50.882Z,38.70
2019-04-11T01:16:34.871Z,35.60
2019-04-11T01:19:04.545Z,36.05
2019-04-11T01:21:33.192Z,37.45
2019-04-11T01:24:01.769Z,35.78
2019-04-11T01:26:30.297Z,36.83
2019-04-11T01:28:58.866Z,35.10
2019-04-11T01:31:29.459Z,36.33
2019-04-11T01:33:57.699Z,36.05
2019-04-11T01:36:26.967Z,34.70
2019-04-11T01:38:57.239Z,35.10
2019-04-11T01:41:26.640Z,36.20
2019-04-11T01:44:00.935Z,33.80
2019-04-11T01:46:25.065Z,34.35
2019-04-11T01:49:12.261Z,34.05
2019-04-11T01:51:42.089Z,33.53
2019-04-11T01:54:11.205Z,33.65
2019-04-11T01:56:39.826Z,33.45
2019-04-11T01:59:08.308Z,34.90
2019-04-11T02:01:39.048Z,32.20
2019-04-11T02:04:12.016Z,32.55
2019-04-11T02:06:40.373Z,33.38
2019-04-11T02:09:13.751Z,31.43
2019-04-11T02:11:42.552Z,33.48
2019-04-11T02:14:15.566Z,32.37
2019-04-11T02:16:41.210Z,31.10
2019-04-11T02:19:10.171Z,32.03
2019-04-11T02:21:39.998Z,33.10
2019-04-11T02:24:09.940Z,29.65
2019-04-11T02:26:41.076Z,32.03
2019-04-11T02:29:11.130Z,28.63
2019-04-11T02:31:40.036Z,28.90
2019-04-11T02:34:08.919Z,31.57
2019-04-11T02:36:38.422Z,29.75
2019-04-11T02:39:12.857Z,29.00
2019-04-11T02:41:40.118Z,26.90
2019-04-11T02:44:27.110Z,25.65
2019-04-11T02:46:47.834Z,23.67
2019-04-11T02:49:10.248Z,23.27
2019-04-11T02:51:39.236Z,20.77
2019-04-11T02:54:08.220Z,19.87
2019-04-11T02:56:37.270Z,19.03
2019-04-11T02:59:05.589Z,18.07
2019-04-11T03:01:34.732Z,18.57
2019-04-11T03:04:04.926Z,16.37
2019-04-11T03:06:35.427Z,16.60
2019-04-11T03:09:07.060Z,17.10
2019-04-11T03:11:36.303Z,17.60
2019-04-11T03:14:05.101Z,17.17
2019-04-11T03:16:46.528Z,17.00
2019-04-11T03:19:19.803Z,16.37
2019-04-11T03:21:39.184Z,16.53
2019-04-11T03:24:06.142Z,15.67
2019-04-11T03:26:35.490Z,16.17
2019-04-11T03:33:29.834Z,16.00
2019-04-11T03:35:59.573Z,16.10
2019-04-11T03:38:00.444Z,15.43
2019-04-11T03:40:28.764Z,16.00
2019-04-11T03:42:55.568Z,15.03
2019-04-11T03:45:34.854Z,15.20
2019-04-11T03:47:56.129Z,15.57
2019-04-11T03:50:16.625Z,13.80
2019-04-11T03:52:40.861Z,15.37
2019-04-11T03:55:11.140Z,14.37
2019-04-11T03:57:41.568Z,13.87
2019-04-11T04:00:12.702Z,14.53
2019-04-11T04:02:41.413Z,14.03
2019-04-11T04:05:10.790Z,14.80
2019-04-11T04:07:40.378Z,14.73
2019-04-11T04:10:13.081Z,14.10
2019-04-11T04:12:40.374Z,12.40
2019-04-11T04:15:29.679Z,12.00
2019-04-11T04:17:49.800Z,11.30
2019-04-11T04:20:37.058Z,10.73
2019-04-11T04:23:20.859Z,12.20
2019-04-11T04:25:51.517Z,11.10
2019-04-11T04:28:21.450Z,11.27
2019-04-11T04:30:51.589Z,10.70
2019-04-11T04:33:22.258Z,10.87
2019-04-11T04:35:51.854Z,12.20
2019-04-11T04:38:21.241Z,11.63
2019-04-11T04:41:07.408Z,11.13
2019-04-11T04:43:22.731Z,10.37
2019-04-11T04:46:08.785Z,11.50
2019-04-11T04:48:24.689Z,11.13
2019-04-11T04:50:54.423Z,10.17
2019-04-11T04:53:23.408Z,9.93
2019-04-11T04:55:52.815Z,9.90
2019-04-11T04:58:22.407Z,9.90
2019-04-11T05:00:53.844Z,10.93
2019-04-11T05:03:22.346Z,10.70
2019-04-11T05:05:52.897Z,10.33
2019-04-11T05:08:22.741Z,10.37
2019-04-11T05:10:51.486Z,10.37
2019-04-11T05:13:21.522Z,11.37
2019-04-11T05:16:02.843Z,10.53
2019-04-11T05:18:21.310Z,10.90
2019-04-11T05:20:50.052Z,10.87
2019-04-11T05:23:18.162Z,10.43
2019-04-11T05:25:46.682Z,9.87
2019-04-11T05:28:15.264Z,10.17
2019-04-11T05:30:43.343Z,9.97
2019-04-11T05:33:11.851Z,9.83
2019-04-11T05:35:40.244Z,9.57
2019-04-11T05:38:08.667Z,9.83
2019-04-11T05:40:37.737Z,9.70
2019-04-11T05:43:06.462Z,9.43
2019-04-11T05:45:35.921Z,9.05
2019-04-11T05:48:06.331Z,10.33
2019-04-11T05:50:36.127Z,9.03
2019-04-11T05:53:05.489Z,9.60
2019-04-11T05:55:36.351Z,9.47
2019-04-11T05:58:09.035Z,9.27
2019-04-11T06:00:46.649Z,9.70
2019-04-11T06:03:15.517Z,8.40
2019-04-11T06:06:03.265Z,9.27
2019-04-11T06:08:32.399Z,9.57
2019-04-11T06:11:23.670Z,9.93
2019-04-11T06:14:07.577Z,9.80
2019-04-11T06:16:46.161Z,9.87
2019-04-11T06:19:22.753Z,9.40
2019-04-11T06:21:53.238Z,9.97
2019-04-11T06:24:23.849Z,8.83
2019-04-11T06:27:06.741Z,8.70
2019-04-11T06:32:37.276Z,9.27
2019-04-11T06:35:11.603Z,9.67
2019-04-11T06:37:41.653Z,8.73
2019-04-11T06:40:27.770Z,8.83
2019-04-11T06:43:03.881Z,9.10
2019-04-11T06:45:49.941Z,8.43
2019-04-11T06:48:36.012Z,8.60
2019-04-11T06:51:06.325Z,9.70
2019-04-11T06:53:36.501Z,9.20
2019-04-11T06:56:21.734Z,9.77
2019-04-11T06:58:55.237Z,8.77
2019-04-11T07:01:25.893Z,8.87
2019-04-11T07:03:58.827Z,8.40
2019-04-11T07:06:29.422Z,9.70
2019-04-11T07:09:16.700Z,9.00
2019-04-11T07:11:53.002Z,9.50
2019-04-11T07:14:31.822Z,9.80
2019-04-11T07:17:18.872Z,9.07
2019-04-11T07:19:51.802Z,9.17
2019-04-11T07:22:38.978Z,9.50
2019-04-11T07:25:27.439Z,9.10
2019-04-11T07:28:03.689Z,8.90
2019-04-11T07:30:50.528Z,9.07
2019-04-11T07:33:31.043Z,9.07
2019-04-11T07:36:18.407Z,8.83
2019-04-11T07:38:58.855Z,8.80
2019-04-11T07:41:38.912Z,9.77
2019-04-11T07:44:28.743Z,8.77
2019-04-11T07:47:19.267Z,9.77
2019-04-11T07:49:46.257Z,8.80
2019-04-11T07:52:18.925Z,9.47
2019-04-11T07:54:47.745Z,9.50
2019-04-11T07:57:20.323Z,9.30
2019-04-11T07:59:53.367Z,9.83
2019-04-11T08:02:24.344Z,8.70
2019-04-11T08:05:09.759Z,9.90
2019-04-11T08:07:55.113Z,10.20
2019-04-11T08:10:35.140Z,8.57
2019-04-11T08:13:05.920Z,8.17
2019-04-11T08:15:44.642Z,10.00
2019-04-11T08:18:17.350Z,9.40
2019-04-11T08:20:47.789Z,9.50
2019-04-11T08:23:17.914Z,9.57
2019-04-11T08:26:04.385Z,9.83
2019-04-11T08:28:33.896Z,10.43
2019-04-11T08:31:07.698Z,9.50
2019-04-11T08:33:35.836Z,8.40
2019-04-11T08:36:21.918Z,9.93
2019-04-11T08:38:50.879Z,9.07
2019-04-11T08:41:38.035Z,9.73
2019-04-11T08:44:07.721Z,10.70
2019-04-11T08:46:44.784Z,9.57
2019-04-11T08:49:33.898Z,10.20
2019-04-11T08:52:31.917Z,9.37
2019-04-11T08:55:02.276Z,10.60
2019-04-11T08:57:36.017Z,9.70
2019-04-11T09:00:24.869Z,10.57
2019-04-11T09:02:57.912Z,11.10
2019-04-11T09:05:33.813Z,9.53
2019-04-11T09:08:18.516Z,10.00
2019-04-11T09:10:58.157Z,10.20
2019-04-11T09:13:28.452Z,9.77
2019-04-11T09:16:15.260Z,11.00
2019-04-11T09:18:44.447Z,10.27
2019-04-11T09:21:31.990Z,10.95
2019-04-11T09:24:02.305Z,10.97
2019-04-11T09:26:49.696Z,11.00
2019-04-11T09:29:20.086Z,11.03
2019-04-11T09:31:56.204Z,11.70
2019-04-11T09:34:35.677Z,14.13
2019-04-11T09:37:06.165Z,12.70
2019-04-11T09:39:39.282Z,12.60
2019-04-11T09:42:10.574Z,11.53
2019-04-11T09:44:44.815Z,11.00
2019-04-11T09:47:22.136Z,11.60
2019-04-11T09:50:09.772Z,13.10
2019-04-11T09:52:42.597Z,11.97
2019-04-11T09:55:48.195Z,13.08
2019-04-11T09:58:25.209Z,12.37
2019-04-11T10:01:12.430Z,12.78
2019-04-11T10:03:42.938Z,13.18
2019-04-11T10:06:19.460Z,13.40
2019-04-11T10:08:50.852Z,13.45
2019-04-11T10:11:35.716Z,13.32
2019-04-11T10:14:09.405Z,12.85
2019-04-11T10:16:56.090Z,13.78
2019-04-11T10:19:27.608Z,14.00
2019-04-11T10:22:04.883Z,13.18
2019-04-11T10:24:43.909Z,14.40
2019-04-11T10:27:22.815Z,13.20
2019-04-11T10:29:55.364Z,13.48
2019-04-11T10:32:25.434Z,14.03
2019-04-11T10:35:10.418Z,12.85
2019-04-11T10:37:40.217Z,12.63
2019-04-11T10:40:26.017Z,13.55
2019-04-11T10:42:55.886Z,13.22
2019-04-11T10:45:31.779Z,14.03
2019-04-11T10:48:01.103Z,14.90
2019-04-11T10:50:47.008Z,13.35
2019-04-11T10:53:16.694Z,14.63
2019-04-11T10:55:50.181Z,12.18
2019-04-11T10:58:20.581Z,14.15
2019-04-11T11:00:59.778Z,14.28
2019-04-11T11:03:33.993Z,13.98
2019-04-11T11:06:05.412Z,14.25
2019-04-11T11:08:35.411Z,14.60
2019-04-11T11:11:20.609Z,14.55
2019-04-11T11:14:06.978Z,15.60
2019-04-11T11:16:41.868Z,15.23
2019-04-11T11:19:43.574Z,15.78
2019-04-11T11:21:59.870Z,15.58
2019-04-11T11:24:31.667Z,14.95
2019-04-11T11:27:02.859Z,16.70
2019-04-11T11:29:31.954Z,17.25
2019-04-11T11:32:05.186Z,17.23
2019-04-11T11:34:38.944Z,17.37
2019-04-11T11:37:17.964Z,17.07
2019-04-11T11:40:11.408Z,18.48
2019-04-11T11:42:36.504Z,17.60
2019-04-11T11:45:07.273Z,18.82
2019-04-11T11:47:57.231Z,18.10
2019-04-11T11:50:30.388Z,17.10
2019-04-11T11:53:08.164Z,18.48
2019-04-11T11:55:37.631Z,18.98
2019-04-11T11:58:16.835Z,18.90
2019-04-11T12:00:45.775Z,18.77
2019-04-11T12:03:33.514Z,18.42
2019-04-11T12:06:03.584Z,18.55
2019-04-11T12:08:49.672Z,18.62
2019-04-11T12:11:18.880Z,20.35
2019-04-11T12:14:05.243Z,18.75
2019-04-11T12:16:39.626Z,19.55
2019-04-11T12:19:16.055Z,21.60
2019-04-11T12:21:45.837Z,19.82
2019-04-11T12:24:18.061Z,20.70
2019-04-11T12:26:51.861Z,18.73
2019-04-11T12:29:42.581Z,19.35
2019-04-11T12:32:14.986Z,19.65
2019-04-11T12:34:49.316Z,18.55
2019-04-11T12:37:19.832Z,18.48
2019-04-11T12:39:56.923Z,19.75
2019-04-11T12:42:26.648Z,18.02
2019-04-11T12:45:14.793Z,18.27
2019-04-11T12:47:43.884Z,19.02
2019-04-11T12:50:15.563Z,19.17
2019-04-11T12:52:54.625Z,18.52
2019-04-11T12:55:27.412Z,20.32
2019-04-11T12:58:06.697Z,20.25
2019-04-11T13:00:53.322Z,18.73
2019-04-11T13:03:39.900Z,19.92
2019-04-11T13:06:34.837Z,21.12
2019-04-11T13:08:57.681Z,20.90
2019-04-11T13:11:27.804Z,19.70
2019-04-11T13:13:57.864Z,20.97
2019-04-11T13:16:28.151Z,19.62
2019-04-11T13:19:13.329Z,19.48
2019-04-11T13:21:43.373Z,19.48
2019-04-11T13:24:31.469Z,19.85
2019-04-11T13:27:04.333Z,20.65
2019-04-11T13:29:45.937Z,22.17
2019-04-11T13:32:31.973Z,19.67
2019-04-11T13:35:10.845Z,20.97
2019-04-11T13:37:57.450Z,22.10
2019-04-11T13:40:27.736Z,21.17
2019-04-11T13:43:14.172Z,20.95
2019-04-11T13:45:47.176Z,20.60
2019-04-11T13:48:17.262Z,22.52
2019-04-11T13:50:45.597Z,19.25
2019-04-11T13:53:31.956Z,22.87
2019-04-11T13:56:00.458Z,22.77
2019-04-11T13:58:30.182Z,21.87
2019-04-11T14:00:58.420Z,21.60
2019-04-11T14:03:46.785Z,23.52
2019-04-11T14:06:17.928Z,20.57
2019-04-11T14:09:05.961Z,21.12
2019-04-11T14:11:35.241Z,21.27
2019-04-11T14:14:20.293Z,21.30
2019-04-11T14:16:50.340Z,20.23
2019-04-11T14:19:20.393Z,21.87
2019-04-11T14:21:50.168Z,22.30
2019-04-11T14:24:32.584Z,20.77
2019-04-11T14:27:02.632Z,21.65
2019-04-11T14:29:35.596Z,23.90
2019-04-11T14:32:11.405Z,24.18
2019-04-11T14:34:44.135Z,23.65
2019-04-11T14:37:25.922Z,22.42
2019-04-11T14:39:55.644Z,21.55
2019-04-11T14:42:45.840Z,21.70
2019-04-11T14:45:12.318Z,22.40
2019-04-11T14:47:58.801Z,23.35
2019-04-11T14:50:40.255Z,21.82
2019-04-11T14:53:03.090Z,20.48
2019-04-11T14:55:31.776Z,23.90
2019-04-11T14:58:17.231Z,23.55
2019-04-11T15:00:45.641Z,21.87
2019-04-11T15:03:18.467Z,20.68
2019-04-11T15:05:50.977Z,20.10
2019-04-11T15:08:21.088Z,19.67
2019-04-11T15:11:02.898Z,20.50
2019-04-11T15:13:32.692Z,21.77
2019-04-11T15:16:10.922Z,20.80
2019-04-11T15:18:40.332Z,22.42
2019-04-11T15:21:13.213Z,20.68
2019-04-11T15:23:42.025Z,23.12
2019-04-11T15:26:11.748Z,23.40
2019-04-11T15:28:44.467Z,22.62
2019-04-11T15:31:39.135Z,21.30
2019-04-11T15:34:05.426Z,21.17
2019-04-11T15:36:34.781Z,21.75
2019-04-11T15:39:13.657Z,18.92
2019-04-11T15:41:46.422Z,21.60
2019-04-11T15:44:32.743Z,21.90
2019-04-11T15:47:14.240Z,19.48
2019-04-11T15:49:46.504Z,20.40
2019-04-11T15:52:15.722Z,18.80
2019-04-11T15:54:51.784Z,19.75
2019-04-11T15:57:26.787Z,21.02
2019-04-11T16:00:13.759Z,21.15
2019-04-11T16:02:49.946Z,20.30
2019-04-11T16:05:35.824Z,18.55
2019-04-11T16:08:14.813Z,21.82
2019-04-11T16:11:02.937Z,19.12
2019-04-11T16:13:49.320Z,21.50
2019-04-11T16:16:19.106Z,20.37
2019-04-11T16:19:05.417Z,19.92
2019-04-11T16:21:54.912Z,19.23
2019-04-11T16:24:31.460Z,18.70
2019-04-11T16:27:17.624Z,18.73
2019-04-11T16:29:51.568Z,18.60
2019-04-11T16:32:19.651Z,20.15
2019-04-11T16:34:54.361Z,20.32
2019-04-11T16:37:19.780Z,20.32
2019-04-11T16:39:55.902Z,18.92
2019-04-11T16:42:25.944Z,18.95
2019-04-11T16:44:56.027Z,21.02
2019-04-11T16:47:28.873Z,20.50
2019-04-11T16:49:57.628Z,19.32
2019-04-11T16:52:26.259Z,20.02
2019-04-11T16:54:54.656Z,19.90
2019-04-11T16:57:23.083Z,20.15
2019-04-11T16:59:51.488Z,20.12
2019-04-11T17:02:21.817Z,19.35
2019-04-11T17:04:50.958Z,20.20
2019-04-11T17:07:23.815Z,19.45
2019-04-11T17:10:01.112Z,19.98
2019-04-11T17:12:29.212Z,20.68
2019-04-11T17:14:57.350Z,20.77
2019-04-11T17:17:26.376Z,20.02
2019-04-11T17:19:55.629Z,19.55
2019-04-11T17:22:24.027Z,19.77
2019-04-11T17:24:52.544Z,19.42
2019-04-11T17:27:23.205Z,20.77
2019-04-11T17:30:10.106Z,20.23
2019-04-11T17:32:38.516Z,21.25
2019-04-11T17:35:07.192Z,20.72
2019-04-11T17:37:35.276Z,21.70
2019-04-11T17:40:07.075Z,19.98
2019-04-11T17:42:36.906Z,19.65
2019-04-11T17:45:06.406Z,21.35
2019-04-11T17:47:34.806Z,18.75
2019-04-11T17:50:04.925Z,20.08
2019-04-11T17:52:33.572Z,19.65
2019-04-11T17:55:02.028Z,19.30
2019-04-11T17:57:30.433Z,19.67
2019-04-11T17:59:59.225Z,19.07
2019-04-11T18:02:28.292Z,19.12
2019-04-11T18:04:58.811Z,18.27
2019-04-11T18:07:26.837Z,19.05
2019-04-11T18:09:56.166Z,21.02
2019-04-11T18:12:26.314Z,18.82
2019-04-11T18:14:55.089Z,17.87
2019-04-11T18:17:23.171Z,18.77
2019-04-11T18:19:51.265Z,19.07
2019-04-11T18:22:19.324Z,18.85
2019-04-11T18:24:49.898Z,18.85
2019-04-11T18:27:17.280Z,19.15
2019-04-11T18:29:45.697Z,19.48
2019-04-11T18:32:14.093Z,18.25
2019-04-11T18:34:42.196Z,19.48
2019-04-11T18:37:10.263Z,19.00
2019-04-11T18:39:38.677Z,18.73
2019-04-11T18:42:07.417Z,19.10
2019-04-11T18:44:35.845Z,18.25
2019-04-11T18:47:03.996Z,17.87
2019-04-11T18:49:32.414Z,18.10
2019-04-11T18:52:00.817Z,18.32
2019-04-11T18:54:29.236Z,17.92
2019-04-11T18:56:57.653Z,16.40
2019-04-11T18:59:26.062Z,16.13
2019-04-11T19:01:54.460Z,16.45
2019-04-11T19:04:31.783Z,16.37
2019-04-11T19:06:53.324Z,15.18
2019-04-11T19:09:22.111Z,15.38
2019-04-11T19:11:51.522Z,15.98
2019-04-11T19:14:19.758Z,15.25
2019-04-11T19:16:48.161Z,15.00
2019-04-11T19:19:18.333Z,13.35
2019-04-11T19:21:46.080Z,14.55
2019-04-11T19:24:14.653Z,14.10
2019-04-11T19:26:46.010Z,14.25
2019-04-11T19:29:12.605Z,14.63
2019-04-11T19:31:41.227Z,13.93
2019-04-11T19:34:09.776Z,14.60
2019-04-11T19:36:39.857Z,13.83
2019-04-11T19:39:08.518Z,14.18
2019-04-11T19:41:36.989Z,13.72
2019-04-11T19:44:05.134Z,12.90
2019-04-11T19:46:33.550Z,14.27
2019-04-11T19:49:02.000Z,13.27
2019-04-11T19:51:30.133Z,13.95
2019-04-11T19:53:58.555Z,13.35
2019-04-11T19:56:37.676Z,13.87
2019-04-11T19:59:06.124Z,12.90
2019-04-11T20:01:34.302Z,14.27
2019-04-11T20:04:02.745Z,13.30
2019-04-11T20:06:31.227Z,14.00
2019-04-11T20:08:59.800Z,13.22
2019-04-11T20:11:29.331Z,12.85
2019-04-11T20:14:00.021Z,12.83
2019-04-11T20:16:28.308Z,14.00
2019-04-11T20:18:57.677Z,12.88
2019-04-11T20:21:27.178Z,12.88
2019-04-11T20:23:55.714Z,13.13
2019-04-11T20:26:24.133Z,13.10
2019-04-11T20:28:52.533Z,13.27
2019-04-11T20:31:20.979Z,13.03
2019-04-11T20:33:49.444Z,13.28
2019-04-11T20:36:17.856Z,13.00
2019-04-11T20:38:46.303Z,12.07
2019-04-11T20:41:14.761Z,12.00
2019-04-11T20:43:43.332Z,12.20
2019-04-11T20:46:11.433Z,12.37
2019-04-11T20:48:39.846Z,13.30
2019-04-11T20:51:08.250Z,11.83
2019-04-11T20:53:37.514Z,12.23
2019-04-11T20:56:09.723Z,13.57
2019-04-11T20:58:36.273Z,12.78
2019-04-11T21:01:05.029Z,11.80
2019-04-11T21:03:33.441Z,12.20
2019-04-11T21:06:01.986Z,13.63
2019-04-11T21:08:32.877Z,12.37
2019-04-11T21:11:01.967Z,12.87
2019-04-11T21:13:30.520Z,12.57
2019-04-11T21:15:58.920Z,12.70
2019-04-11T21:18:27.344Z,11.87
2019-04-11T21:20:55.897Z,13.30
2019-04-11T21:23:43.440Z,11.73
2019-04-11T21:26:11.856Z,11.70
2019-04-11T21:28:39.941Z,12.33
2019-04-11T21:31:08.401Z,12.23
2019-04-11T21:33:36.488Z,12.70
2019-04-11T21:36:04.708Z,13.07
2019-04-11T21:38:33.111Z,13.03
2019-04-11T21:41:01.250Z,12.17
2019-04-11T21:43:29.675Z,12.03
2019-04-11T21:45:58.155Z,12.60
2019-04-11T21:48:26.582Z,13.13
2019-04-11T21:50:54.985Z,12.87
2019-04-11T21:53:23.488Z,12.77
2019-04-11T21:55:51.889Z,12.40
2019-04-11T21:58:20.504Z,12.87
2019-04-11T22:00:54.424Z,13.33
2019-04-11T22:03:24.246Z,11.87
2019-04-11T22:05:52.679Z,12.37
2019-04-11T22:08:21.105Z,11.80
2019-04-11T22:10:49.599Z,12.43
2019-04-11T22:13:17.707Z,11.93
2019-04-11T22:15:46.097Z,12.30
2019-04-11T22:18:16.722Z,13.23
2019-04-11T22:20:45.229Z,11.60
2019-04-11T22:23:14.373Z,12.07
2019-04-11T22:25:42.772Z,12.33
2019-04-11T22:28:10.860Z,12.77
2019-04-11T22:30:39.261Z,12.37
2019-04-11T22:33:15.289Z,13.97
2019-04-11T22:35:43.684Z,12.20
2019-04-11T22:38:12.097Z,13.93
2019-04-11T22:40:40.172Z,12.53
2019-04-11T22:43:08.580Z,12.07
2019-04-11T22:45:37.962Z,12.77
2019-04-11T22:48:08.792Z,13.30
2019-04-11T22:50:40.259Z,14.03
2019-04-11T22:53:07.264Z,13.13
2019-04-11T22:55:36.162Z,12.67
2019-04-11T22:58:04.593Z,12.73
2019-04-11T23:00:33.014Z,12.80
2019-04-11T23:03:05.739Z,12.00
2019-04-11T23:05:34.163Z,13.23
2019-04-11T23:08:02.883Z,13.23
2019-04-11T23:10:31.097Z,12.83
2019-04-11T23:12:59.496Z,12.20
2019-04-11T23:15:28.104Z,13.75
2019-04-11T23:17:56.483Z,13.17
2019-04-11T23:20:24.896Z,12.73
2019-04-11T23:22:53.301Z,13.60
2019-04-11T23:25:21.712Z,13.73
2019-04-11T23:27:50.108Z,13.40
2019-04-11T23:30:19.087Z,13.57
2019-04-11T23:32:50.923Z,12.77
2019-04-11T23:35:17.515Z,12.85
2019-04-11T23:37:51.068Z,13.87
2019-04-11T23:40:21.839Z,13.37
2019-04-11T23:42:50.839Z,14.37
2019-04-11T23:45:21.565Z,14.07
2019-04-11T23:47:53.068Z,13.50
2019-04-11T23:50:20.104Z,13.37
2019-04-11T23:52:48.532Z,13.97
2019-04-11T23:55:16.935Z,14.10
2019-04-11T23:57:45.014Z,14.33
